Aviation Digital Data Service (ADDS)

Output produced by METARs form (0341 UTC 26 June 2019)
found at http://www.aviationweather.gov/metar/data/
 
Forecast for: OISS (SHIRAZ (CIV/AFB), IR)
Text: TAF OISS 252330Z 2600/2706 24012KT 7000 FEW040
Forecast period: 0000 UTC 26 June 2019 to 0600 UTC 27 June 2019
Forecast type: FROM: standard forecast or significant change
Winds: from the WSW (240 degrees) at 14 MPH (12 knots; 6.2 m/s)
Visibility: 4 miles (7 km)
Ceiling: at least 12,000 feet AGL
Clouds: few clouds at 4000 feet AGL
Weather: no significant weather forecast for this period